sensor_id;sensor_type;location;lat;lon;timestamp;temperature;humidity
25410;DHT22;13339;50.840;4.346;2022-11-20T00:00:28;6.10;99.90
25410;DHT22;13339;50.840;4.346;2022-11-20T00:02:53;6.20;99.90
25410;DHT22;13339;50.840;4.346;2022-11-20T00:05:19;6.00;99.90
25410;DHT22;13339;50.840;4.346;2022-11-20T00:07:46;5.90;99.90
25410;DHT22;13339;50.840;4.346;2022-11-20T00:10:12;6.10;99.90
25410;DHT22;13339;50.840;4.346;2022-11-20T00:12:37;6.30;99.90
25410;DHT22;13339;50.840;4.346;2022-11-20T00:15:04;6.40;99.90
25410;DHT22;13339;50.840;4.346;2022-11-20T00:17:29;6.50;99.90
25410;DHT22;13339;50.840;4.346;2022-11-20T00:19:55;6.60;99.90
25410;DHT22;13339;50.840;4.346;2022-11-20T00:22:21;6.60;99.90
25410;DHT22;13339;50.840;4.346;2022-11-20T00:24:46;6.70;99.90
25410;DHT22;13339;50.840;4.346;2022-11-20T00:27:12;6.80;99.90
25410;DHT22;13339;50.840;4.346;2022-11-20T00:29:37;6.70;99.90
25410;DHT22;13339;50.840;4.346;2022-11-20T00:32:03;6.70;99.90
25410;DHT22;13339;50.840;4.346;2022-11-20T00:34:28;6.70;99.90
25410;DHT22;13339;50.840;4.346;2022-11-20T00:36:54;6.70;99.90
25410;DHT22;13339;50.840;4.346;2022-11-20T00:39:19;6.70;99.90
25410;DHT22;13339;50.840;4.346;2022-11-20T00:41:45;6.70;99.90
25410;DHT22;13339;50.840;4.346;2022-11-20T00:44:10;6.90;99.90
25410;DHT22;13339;50.840;4.346;2022-11-20T00:46:36;6.80;99.90
25410;DHT22;13339;50.840;4.346;2022-11-20T00:49:02;6.60;99.90
25410;DHT22;13339;50.840;4.346;2022-11-20T00:51:28;6.80;99.90
25410;DHT22;13339;50.840;4.346;2022-11-20T00:53:57;6.80;99.90
25410;DHT22;13339;50.840;4.346;2022-11-20T00:56:23;6.80;99.90
25410;DHT22;13339;50.840;4.346;2022-11-20T00:58:49;6.70;99.90
25410;DHT22;13339;50.840;4.346;2022-11-20T01:01:20;6.80;99.90
25410;DHT22;13339;50.840;4.346;2022-11-20T01:03:48;6.80;99.90
25410;DHT22;13339;50.840;4.346;2022-11-20T01:08:49;6.70;99.90
25410;DHT22;13339;50.840;4.346;2022-11-20T01:11:17;6.90;99.90
25410;DHT22;13339;50.840;4.346;2022-11-20T01:13:45;6.90;99.90
25410;DHT22;13339;50.840;4.346;2022-11-20T01:16:22;7.10;99.90
25410;DHT22;13339;50.840;4.346;2022-11-20T01:18:50;7.00;99.90
25410;DHT22;13339;50.840;4.346;2022-11-20T01:21:42;7.10;99.90
25410;DHT22;13339;50.840;4.346;2022-11-20T01:24:12;7.00;99.90
25410;DHT22;13339;50.840;4.346;2022-11-20T01:26:40;7.00;99.90
25410;DHT22;13339;50.840;4.346;2022-11-20T01:29:07;7.10;99.90
25410;DHT22;13339;50.840;4.346;2022-11-20T01:31:35;7.30;99.90
25410;DHT22;13339;50.840;4.346;2022-11-20T01:34:03;7.30;99.90
25410;DHT22;13339;50.840;4.346;2022-11-20T01:36:30;7.40;99.90
25410;DHT22;13339;50.840;4.346;2022-11-20T01:39:03;7.30;99.90
25410;DHT22;13339;50.840;4.346;2022-11-20T01:41:31;7.40;99.90
25410;DHT22;13339;50.840;4.346;2022-11-20T01:44:19;7.40;99.90
25410;DHT22;13339;50.840;4.346;2022-11-20T01:47:03;7.40;99.90
25410;DHT22;13339;50.840;4.346;2022-11-20T01:49:42;7.60;99.90
25410;DHT22;13339;50.840;4.346;2022-11-20T01:52:29;7.50;99.90
25410;DHT22;13339;50.840;4.346;2022-11-20T01:55:04;7.70;99.90
25410;DHT22;13339;50.840;4.346;2022-11-20T01:57:31;7.60;99.90
25410;DHT22;13339;50.840;4.346;2022-11-20T02:00:03;7.50;99.90
25410;DHT22;13339;50.840;4.346;2022-11-20T02:02:29;7.30;99.90
25410;DHT22;13339;50.840;4.346;2022-11-20T02:04:58;7.10;99.90
25410;DHT22;13339;50.840;4.346;2022-11-20T02:07:26;7.10;99.90
25410;DHT22;13339;50.840;4.346;2022-11-20T02:09:52;7.30;99.90
25410;DHT22;13339;50.840;4.346;2022-11-20T02:12:18;7.30;99.90
25410;DHT22;13339;50.840;4.346;2022-11-20T02:15:03;7.70;99.90
25410;DHT22;13339;50.840;4.346;2022-11-20T02:17:28;7.90;99.90
25410;DHT22;13339;50.840;4.346;2022-11-20T02:19:54;7.90;99.90
25410;DHT22;13339;50.840;4.346;2022-11-20T02:22:33;7.70;99.90
25410;DHT22;13339;50.840;4.346;2022-11-20T02:25:02;7.70;99.90
25410;DHT22;13339;50.840;4.346;2022-11-20T02:27:29;7.70;99.90
25410;DHT22;13339;50.840;4.346;2022-11-20T02:30:00;7.80;99.90
25410;DHT22;13339;50.840;4.346;2022-11-20T02:32:33;7.80;99.90
25410;DHT22;13339;50.840;4.346;2022-11-20T02:37:35;7.70;99.90
25410;DHT22;13339;50.840;4.346;2022-11-20T02:40:01;7.80;99.90
25410;DHT22;13339;50.840;4.346;2022-11-20T02:42:27;7.90;99.90
25410;DHT22;13339;50.840;4.346;2022-11-20T02:44:52;7.80;99.90
25410;DHT22;13339;50.840;4.346;2022-11-20T02:47:18;7.80;99.90
25410;DHT22;13339;50.840;4.346;2022-11-20T02:49:43;7.90;99.90
25410;DHT22;13339;50.840;4.346;2022-11-20T02:52:09;7.90;99.90
25410;DHT22;13339;50.840;4.346;2022-11-20T02:54:35;8.10;99.90
25410;DHT22;13339;50.840;4.346;2022-11-20T02:57:00;8.10;99.90
25410;DHT22;13339;50.840;4.346;2022-11-20T02:59:26;8.10;99.90
25410;DHT22;13339;50.840;4.346;2022-11-20T03:01:51;8.10;99.90
25410;DHT22;13339;50.840;4.346;2022-11-20T03:04:17;8.20;99.90
25410;DHT22;13339;50.840;4.346;2022-11-20T03:06:42;8.20;99.90
25410;DHT22;13339;50.840;4.346;2022-11-20T03:09:08;8.30;99.90
25410;DHT22;13339;50.840;4.346;2022-11-20T03:11:34;8.20;99.90
25410;DHT22;13339;50.840;4.346;2022-11-20T03:14:04;8.00;99.90
25410;DHT22;13339;50.840;4.346;2022-11-20T03:16:31;8.00;99.90
25410;DHT22;13339;50.840;4.346;2022-11-20T03:18:56;8.00;99.90
25410;DHT22;13339;50.840;4.346;2022-11-20T03:21:22;8.10;99.90
25410;DHT22;13339;50.840;4.346;2022-11-20T03:23:47;8.00;99.90
25410;DHT22;13339;50.840;4.346;2022-11-20T03:26:18;8.10;99.90
25410;DHT22;13339;50.840;4.346;2022-11-20T03:28:59;8.20;99.90
25410;DHT22;13339;50.840;4.346;2022-11-20T03:31:27;8.20;99.90
25410;DHT22;13339;50.840;4.346;2022-11-20T03:33:53;8.30;99.90
25410;DHT22;13339;50.840;4.346;2022-11-20T03:36:20;8.30;99.90
25410;DHT22;13339;50.840;4.346;2022-11-20T03:38:47;8.30;99.90
25410;DHT22;13339;50.840;4.346;2022-11-20T03:41:17;8.40;99.90
25410;DHT22;13339;50.840;4.346;2022-11-20T03:43:50;8.40;99.90
25410;DHT22;13339;50.840;4.346;2022-11-20T03:46:15;8.30;99.90
25410;DHT22;13339;50.840;4.346;2022-11-20T03:48:41;8.30;99.90
25410;DHT22;13339;50.840;4.346;2022-11-20T03:51:14;8.50;99.90
25410;DHT22;13339;50.840;4.346;2022-11-20T03:53:41;8.50;99.90
25410;DHT22;13339;50.840;4.346;2022-11-20T03:56:07;8.50;99.90
25410;DHT22;13339;50.840;4.346;2022-11-20T03:58:34;8.60;99.90
25410;DHT22;13339;50.840;4.346;2022-11-20T04:01:07;8.60;99.90
25410;DHT22;13339;50.840;4.346;2022-11-20T04:03:34;8.60;99.90
25410;DHT22;13339;50.840;4.346;2022-11-20T04:06:11;8.70;99.90
25410;DHT22;13339;50.840;4.346;2022-11-20T04:08:37;8.60;99.90
25410;DHT22;13339;50.840;4.346;2022-11-20T04:11:20;8.60;99.90
25410;DHT22;13339;50.840;4.346;2022-11-20T04:13:49;8.60;99.90
25410;DHT22;13339;50.840;4.346;2022-11-20T04:16:15;8.60;99.90
25410;DHT22;13339;50.840;4.346;2022-11-20T04:18:41;8.60;99.90
25410;DHT22;13339;50.840;4.346;2022-11-20T04:21:07;8.60;99.90
25410;DHT22;13339;50.840;4.346;2022-11-20T04:23:33;8.60;99.90
25410;DHT22;13339;50.840;4.346;2022-11-20T04:26:07;8.60;99.90
25410;DHT22;13339;50.840;4.346;2022-11-20T04:28:32;8.50;99.90
25410;DHT22;13339;50.840;4.346;2022-11-20T04:31:19;8.70;99.90
25410;DHT22;13339;50.840;4.346;2022-11-20T04:33:45;8.70;99.90
25410;DHT22;13339;50.840;4.346;2022-11-20T04:36:16;8.70;99.90
25410;DHT22;13339;50.840;4.346;2022-11-20T04:38:42;8.70;99.90
25410;DHT22;13339;50.840;4.346;2022-11-20T04:41:16;8.70;99.90
25410;DHT22;13339;50.840;4.346;2022-11-20T04:43:46;8.80;99.90
25410;DHT22;13339;50.840;4.346;2022-11-20T04:46:13;8.70;99.90
25410;DHT22;13339;50.840;4.346;2022-11-20T04:48:39;8.80;99.90
25410;DHT22;13339;50.840;4.346;2022-11-20T04:51:04;8.90;99.90
25410;DHT22;13339;50.840;4.346;2022-11-20T04:53:30;8.90;99.90
25410;DHT22;13339;50.840;4.346;2022-11-20T04:56:04;8.90;99.90
25410;DHT22;13339;50.840;4.346;2022-11-20T04:58:30;9.00;99.90
25410;DHT22;13339;50.840;4.346;2022-11-20T05:03:29;9.00;99.90
25410;DHT22;13339;50.840;4.346;2022-11-20T05:05:54;9.00;99.90
25410;DHT22;13339;50.840;4.346;2022-11-20T05:08:20;9.00;99.90
25410;DHT22;13339;50.840;4.346;2022-11-20T05:10:46;9.00;99.90
25410;DHT22;13339;50.840;4.346;2022-11-20T05:13:11;8.80;99.90
25410;DHT22;13339;50.840;4.346;2022-11-20T05:15:37;8.70;99.90
25410;DHT22;13339;50.840;4.346;2022-11-20T05:18:02;8.80;99.90
25410;DHT22;13339;50.840;4.346;2022-11-20T05:20:28;8.70;99.90
25410;DHT22;13339;50.840;4.346;2022-11-20T05:22:56;8.80;99.90
25410;DHT22;13339;50.840;4.346;2022-11-20T05:25:22;8.90;99.90
25410;DHT22;13339;50.840;4.346;2022-11-20T05:27:48;9.00;99.90
25410;DHT22;13339;50.840;4.346;2022-11-20T05:30:14;8.80;99.90
25410;DHT22;13339;50.840;4.346;2022-11-20T05:32:39;8.80;99.90
25410;DHT22;13339;50.840;4.346;2022-11-20T05:35:05;8.80;99.90
25410;DHT22;13339;50.840;4.346;2022-11-20T05:37:31;8.80;99.90
25410;DHT22;13339;50.840;4.346;2022-11-20T05:39:56;8.90;99.90
25410;DHT22;13339;50.840;4.346;2022-11-20T05:42:22;9.00;99.90
25410;DHT22;13339;50.840;4.346;2022-11-20T05:45:01;9.00;99.90
25410;DHT22;13339;50.840;4.346;2022-11-20T05:47:32;9.00;99.90
25410;DHT22;13339;50.840;4.346;2022-11-20T05:49:58;8.90;99.90
25410;DHT22;13339;50.840;4.346;2022-11-20T05:52:23;9.00;99.90
25410;DHT22;13339;50.840;4.346;2022-11-20T05:54:49;8.90;99.90
25410;DHT22;13339;50.840;4.346;2022-11-20T05:57:15;8.90;99.90
25410;DHT22;13339;50.840;4.346;2022-11-20T05:59:41;8.90;99.90
25410;DHT22;13339;50.840;4.346;2022-11-20T06:02:06;8.80;99.90
25410;DHT22;13339;50.840;4.346;2022-11-20T06:04:32;8.90;99.90
25410;DHT22;13339;50.840;4.346;2022-11-20T06:06:58;9.00;99.90
25410;DHT22;13339;50.840;4.346;2022-11-20T06:09:23;9.10;99.90
25410;DHT22;13339;50.840;4.346;2022-11-20T06:11:49;9.10;99.90
25410;DHT22;13339;50.840;4.346;2022-11-20T06:14:14;9.20;99.90
25410;DHT22;13339;50.840;4.346;2022-11-20T06:16:40;9.10;99.90
25410;DHT22;13339;50.840;4.346;2022-11-20T06:19:05;9.10;99.90
25410;DHT22;13339;50.840;4.346;2022-11-20T06:21:31;9.00;99.90
25410;DHT22;13339;50.840;4.346;2022-11-20T06:23:57;9.00;99.90
25410;DHT22;13339;50.840;4.346;2022-11-20T06:26:25;8.80;99.90
25410;DHT22;13339;50.840;4.346;2022-11-20T06:28:51;8.80;99.90
25410;DHT22;13339;50.840;4.346;2022-11-20T06:31:19;8.80;99.90
25410;DHT22;13339;50.840;4.346;2022-11-20T06:33:45;9.00;99.90
25410;DHT22;13339;50.840;4.346;2022-11-20T06:36:13;8.90;99.90
25410;DHT22;13339;50.840;4.346;2022-11-20T06:38:39;8.90;99.90
25410;DHT22;13339;50.840;4.346;2022-11-20T06:41:07;9.00;99.90
25410;DHT22;13339;50.840;4.346;2022-11-20T06:43:32;8.90;99.90
25410;DHT22;13339;50.840;4.346;2022-11-20T06:45:59;9.00;99.90
25410;DHT22;13339;50.840;4.346;2022-11-20T06:48:27;9.00;99.90
25410;DHT22;13339;50.840;4.346;2022-11-20T06:50:52;9.20;99.90
25410;DHT22;13339;50.840;4.346;2022-11-20T06:53:18;9.20;99.90
25410;DHT22;13339;50.840;4.346;2022-11-20T06:55:45;9.30;99.90
25410;DHT22;13339;50.840;4.346;2022-11-20T06:58:12;9.30;99.90
25410;DHT22;13339;50.840;4.346;2022-11-20T07:00:38;9.40;99.90
25410;DHT22;13339;50.840;4.346;2022-11-20T07:03:06;9.50;99.90
25410;DHT22;13339;50.840;4.346;2022-11-20T07:05:32;9.50;99.90
25410;DHT22;13339;50.840;4.346;2022-11-20T07:07:58;9.50;99.90
25410;DHT22;13339;50.840;4.346;2022-11-20T07:10:24;9.60;99.90
25410;DHT22;13339;50.840;4.346;2022-11-20T07:12:53;9.60;99.90
25410;DHT22;13339;50.840;4.346;2022-11-20T07:15:20;9.60;99.90
25410;DHT22;13339;50.840;4.346;2022-11-20T07:17:46;9.60;99.90
25410;DHT22;13339;50.840;4.346;2022-11-20T07:20:15;9.50;99.90
25410;DHT22;13339;50.840;4.346;2022-11-20T07:22:42;9.60;99.90
25410;DHT22;13339;50.840;4.346;2022-11-20T07:25:08;9.70;99.90
25410;DHT22;13339;50.840;4.346;2022-11-20T07:27:34;9.80;99.90
25410;DHT22;13339;50.840;4.346;2022-11-20T07:30:00;9.80;99.90
25410;DHT22;13339;50.840;4.346;2022-11-20T07:32:26;9.90;99.90
25410;DHT22;13339;50.840;4.346;2022-11-20T07:34:52;9.80;99.90
25410;DHT22;13339;50.840;4.346;2022-11-20T07:37:17;9.90;99.90
25410;DHT22;13339;50.840;4.346;2022-11-20T07:39:43;9.70;99.90
25410;DHT22;13339;50.840;4.346;2022-11-20T07:42:09;9.80;99.90
25410;DHT22;13339;50.840;4.346;2022-11-20T07:44:34;9.80;99.90
25410;DHT22;13339;50.840;4.346;2022-11-20T07:47:00;9.70;99.90
25410;DHT22;13339;50.840;4.346;2022-11-20T07:49:26;9.80;99.90
25410;DHT22;13339;50.840;4.346;2022-11-20T07:51:52;9.80;99.90
25410;DHT22;13339;50.840;4.346;2022-11-20T07:54:21;10.00;99.90
25410;DHT22;13339;50.840;4.346;2022-11-20T07:56:47;10.00;99.90
25410;DHT22;13339;50.840;4.346;2022-11-20T07:59:14;10.20;99.90
25410;DHT22;13339;50.840;4.346;2022-11-20T08:01:40;9.90;99.90
25410;DHT22;13339;50.840;4.346;2022-11-20T08:04:05;9.80;99.90
25410;DHT22;13339;50.840;4.346;2022-11-20T08:06:31;9.90;99.90
25410;DHT22;13339;50.840;4.346;2022-11-20T08:08:57;9.90;99.90
25410;DHT22;13339;50.840;4.346;2022-11-20T08:11:23;9.80;99.90
25410;DHT22;13339;50.840;4.346;2022-11-20T08:14:07;9.80;99.90
25410;DHT22;13339;50.840;4.346;2022-11-20T08:16:48;10.00;99.90
25410;DHT22;13339;50.840;4.346;2022-11-20T08:19:17;10.10;99.90
25410;DHT22;13339;50.840;4.346;2022-11-20T08:21:43;10.00;99.90
25410;DHT22;13339;50.840;4.346;2022-11-20T08:24:10;9.80;99.90
25410;DHT22;13339;50.840;4.346;2022-11-20T08:26:37;9.80;99.90
25410;DHT22;13339;50.840;4.346;2022-11-20T08:29:03;10.00;99.90
25410;DHT22;13339;50.840;4.346;2022-11-20T08:31:29;10.10;99.90
25410;DHT22;13339;50.840;4.346;2022-11-20T08:33:55;10.00;99.90
25410;DHT22;13339;50.840;4.346;2022-11-20T08:36:22;10.00;99.90
25410;DHT22;13339;50.840;4.346;2022-11-20T08:38:52;10.10;99.90
25410;DHT22;13339;50.840;4.346;2022-11-20T08:41:18;10.30;99.90
25410;DHT22;13339;50.840;4.346;2022-11-20T08:44:04;10.40;99.90
25410;DHT22;13339;50.840;4.346;2022-11-20T08:46:38;10.40;99.90
25410;DHT22;13339;50.840;4.346;2022-11-20T08:49:05;10.40;99.90
25410;DHT22;13339;50.840;4.346;2022-11-20T08:51:32;10.30;99.90
25410;DHT22;13339;50.840;4.346;2022-11-20T08:53:57;10.40;99.90
25410;DHT22;13339;50.840;4.346;2022-11-20T08:56:23;10.60;99.90
25410;DHT22;13339;50.840;4.346;2022-11-20T08:58:50;10.70;99.90
25410;DHT22;13339;50.840;4.346;2022-11-20T09:01:20;10.70;99.90
25410;DHT22;13339;50.840;4.346;2022-11-20T09:03:46;10.80;99.90
25410;DHT22;13339;50.840;4.346;2022-11-20T09:06:12;10.80;99.90
25410;DHT22;13339;50.840;4.346;2022-11-20T09:08:38;10.80;99.90
25410;DHT22;13339;50.840;4.346;2022-11-20T09:11:04;10.90;99.90
25410;DHT22;13339;50.840;4.346;2022-11-20T09:13:30;10.90;99.90
25410;DHT22;13339;50.840;4.346;2022-11-20T09:15:57;11.00;99.90
25410;DHT22;13339;50.840;4.346;2022-11-20T09:18:24;11.00;99.90
25410;DHT22;13339;50.840;4.346;2022-11-20T09:20:50;11.10;99.90
25410;DHT22;13339;50.840;4.346;2022-11-20T09:23:16;11.20;99.90
25410;DHT22;13339;50.840;4.346;2022-11-20T09:25:43;11.20;99.90
25410;DHT22;13339;50.840;4.346;2022-11-20T09:28:08;11.10;99.90
25410;DHT22;13339;50.840;4.346;2022-11-20T09:30:34;11.10;99.90
25410;DHT22;13339;50.840;4.346;2022-11-20T09:32:59;11.20;99.90
25410;DHT22;13339;50.840;4.346;2022-11-20T09:35:25;11.20;99.90
25410;DHT22;13339;50.840;4.346;2022-11-20T09:37:50;11.20;99.90
25410;DHT22;13339;50.840;4.346;2022-11-20T09:40:21;11.40;99.90
25410;DHT22;13339;50.840;4.346;2022-11-20T09:42:57;11.40;99.90
25410;DHT22;13339;50.840;4.346;2022-11-20T09:50:54;11.50;99.90
25410;DHT22;13339;50.840;4.346;2022-11-20T09:53:52;11.60;99.90
25410;DHT22;13339;50.840;4.346;2022-11-20T09:56:22;11.40;99.90
25410;DHT22;13339;50.840;4.346;2022-11-20T09:58:50;11.50;99.90
25410;DHT22;13339;50.840;4.346;2022-11-20T10:01:21;11.60;99.90
25410;DHT22;13339;50.840;4.346;2022-11-20T10:06:41;11.80;99.90
25410;DHT22;13339;50.840;4.346;2022-11-20T10:19:45;12.00;99.90
25410;DHT22;13339;50.840;4.346;2022-11-20T10:24:44;11.90;99.90
25410;DHT22;13339;50.840;4.346;2022-11-20T10:27:39;11.80;99.90
25410;DHT22;13339;50.840;4.346;2022-11-20T10:30:15;11.70;99.90
25410;DHT22;13339;50.840;4.346;2022-11-20T10:32:44;11.90;99.90
25410;DHT22;13339;50.840;4.346;2022-11-20T10:35:21;11.90;99.90
25410;DHT22;13339;50.840;4.346;2022-11-20T10:37:56;12.10;99.90
25410;DHT22;13339;50.840;4.346;2022-11-20T10:40:37;12.30;99.90
25410;DHT22;13339;50.840;4.346;2022-11-20T10:43:16;12.30;99.90
25410;DHT22;13339;50.840;4.346;2022-11-20T10:48:23;12.30;99.90
25410;DHT22;13339;50.840;4.346;2022-11-20T10:56:52;12.30;99.90
25410;DHT22;13339;50.840;4.346;2022-11-20T10:59:59;12.30;99.90
25410;DHT22;13339;50.840;4.346;2022-11-20T11:02:44;12.20;99.90
25410;DHT22;13339;50.840;4.346;2022-11-20T11:07:49;12.10;99.90
25410;DHT22;13339;50.840;4.346;2022-11-20T11:11:20;12.10;99.90
25410;DHT22;13339;50.840;4.346;2022-11-20T11:13:25;11.90;99.90
25410;DHT22;13339;50.840;4.346;2022-11-20T11:15:52;11.80;99.90
25410;DHT22;13339;50.840;4.346;2022-11-20T11:18:34;11.80;99.90
25410;DHT22;13339;50.840;4.346;2022-11-20T11:21:02;11.90;99.90
25410;DHT22;13339;50.840;4.346;2022-11-20T11:23:37;12.10;99.90
25410;DHT22;13339;50.840;4.346;2022-11-20T11:26:06;12.30;99.90
25410;DHT22;13339;50.840;4.346;2022-11-20T11:28:33;12.30;99.90
25410;DHT22;13339;50.840;4.346;2022-11-20T11:30:58;12.40;99.90
25410;DHT22;13339;50.840;4.346;2022-11-20T11:33:27;12.30;99.90
25410;DHT22;13339;50.840;4.346;2022-11-20T11:36:00;12.40;99.90
25410;DHT22;13339;50.840;4.346;2022-11-20T11:38:36;12.30;99.90
25410;DHT22;13339;50.840;4.346;2022-11-20T11:41:04;12.40;99.90
25410;DHT22;13339;50.840;4.346;2022-11-20T11:43:33;12.40;99.90
25410;DHT22;13339;50.840;4.346;2022-11-20T11:46:28;12.50;99.90
25410;DHT22;13339;50.840;4.346;2022-11-20T11:51:36;12.40;99.90
25410;DHT22;13339;50.840;4.346;2022-11-20T11:54:11;12.40;99.90
25410;DHT22;13339;50.840;4.346;2022-11-20T11:56:39;12.50;99.90
25410;DHT22;13339;50.840;4.346;2022-11-20T11:59:06;12.50;99.90
25410;DHT22;13339;50.840;4.346;2022-11-20T12:01:47;12.60;99.90
25410;DHT22;13339;50.840;4.346;2022-11-20T12:04:42;12.60;99.90
25410;DHT22;13339;50.840;4.346;2022-11-20T12:07:34;12.40;99.90
25410;DHT22;13339;50.840;4.346;2022-11-20T12:10:02;12.50;99.90
25410;DHT22;13339;50.840;4.346;2022-11-20T12:12:34;12.40;99.90
25410;DHT22;13339;50.840;4.346;2022-11-20T12:15:04;12.40;99.90
25410;DHT22;13339;50.840;4.346;2022-11-20T12:17:30;12.30;99.90
25410;DHT22;13339;50.840;4.346;2022-11-20T12:19:56;12.20;99.90
25410;DHT22;13339;50.840;4.346;2022-11-20T12:25:22;12.00;99.90
25410;DHT22;13339;50.840;4.346;2022-11-20T12:28:12;12.00;99.90
25410;DHT22;13339;50.840;4.346;2022-11-20T12:36:27;11.70;99.90
25410;DHT22;13339;50.840;4.346;2022-11-20T12:39:06;11.70;99.90
25410;DHT22;13339;50.840;4.346;2022-11-20T12:56:29;11.90;99.90
25410;DHT22;13339;50.840;4.346;2022-11-20T12:59:18;11.90;99.90
25410;DHT22;13339;50.840;4.346;2022-11-20T13:01:56;12.00;99.90
25410;DHT22;13339;50.840;4.346;2022-11-20T13:04:56;12.00;99.90
25410;DHT22;13339;50.840;4.346;2022-11-20T13:07:24;12.10;99.90
25410;DHT22;13339;50.840;4.346;2022-11-20T13:09:52;12.20;99.90
25410;DHT22;13339;50.840;4.346;2022-11-20T13:12:24;12.00;99.90
25410;DHT22;13339;50.840;4.346;2022-11-20T13:17:55;12.10;99.90
25410;DHT22;13339;50.840;4.346;2022-11-20T13:20:22;12.00;99.90
25410;DHT22;13339;50.840;4.346;2022-11-20T13:22:49;11.80;99.90
25410;DHT22;13339;50.840;4.346;2022-11-20T13:25:32;11.80;99.90
25410;DHT22;13339;50.840;4.346;2022-11-20T13:28:01;11.50;99.90
25410;DHT22;13339;50.840;4.346;2022-11-20T13:30:29;11.60;99.90
25410;DHT22;13339;50.840;4.346;2022-11-20T13:35:53;11.60;99.90
25410;DHT22;13339;50.840;4.346;2022-11-20T13:38:19;11.60;99.90
25410;DHT22;13339;50.840;4.346;2022-11-20T13:43:40;11.60;99.90
25410;DHT22;13339;50.840;4.346;2022-11-20T13:46:08;11.60;99.90
25410;DHT22;13339;50.840;4.346;2022-11-20T13:48:39;11.70;99.90
25410;DHT22;13339;50.840;4.346;2022-11-20T13:51:28;11.50;99.90
25410;DHT22;13339;50.840;4.346;2022-11-20T13:56:59;11.60;99.90
25410;DHT22;13339;50.840;4.346;2022-11-20T14:02:15;11.60;99.90
25410;DHT22;13339;50.840;4.346;2022-11-20T14:04:48;11.60;99.90
25410;DHT22;13339;50.840;4.346;2022-11-20T14:07:15;11.50;99.90
25410;DHT22;13339;50.840;4.346;2022-11-20T14:09:50;11.50;99.90
25410;DHT22;13339;50.840;4.346;2022-11-20T14:12:20;11.60;99.90
25410;DHT22;13339;50.840;4.346;2022-11-20T14:14:51;11.60;99.90
25410;DHT22;13339;50.840;4.346;2022-11-20T14:17:21;11.60;99.90
25410;DHT22;13339;50.840;4.346;2022-11-20T14:19:49;11.60;99.90
25410;DHT22;13339;50.840;4.346;2022-11-20T14:22:24;11.70;99.90
25410;DHT22;13339;50.840;4.346;2022-11-20T14:25:06;11.80;99.90
25410;DHT22;13339;50.840;4.346;2022-11-20T14:27:40;11.70;99.90
25410;DHT22;13339;50.840;4.346;2022-11-20T14:30:16;11.60;99.90
25410;DHT22;13339;50.840;4.346;2022-11-20T14:32:43;11.60;99.90
25410;DHT22;13339;50.840;4.346;2022-11-20T14:35:13;11.60;99.90
25410;DHT22;13339;50.840;4.346;2022-11-20T14:37:41;11.60;99.90
25410;DHT22;13339;50.840;4.346;2022-11-20T14:42:49;11.50;99.90
25410;DHT22;13339;50.840;4.346;2022-11-20T14:45:15;11.50;99.90
25410;DHT22;13339;50.840;4.346;2022-11-20T14:47:42;11.50;99.90
25410;DHT22;13339;50.840;4.346;2022-11-20T14:50:24;11.40;99.90
25410;DHT22;13339;50.840;4.346;2022-11-20T14:53:00;11.30;99.90
25410;DHT22;13339;50.840;4.346;2022-11-20T14:58:19;11.10;99.90
25410;DHT22;13339;50.840;4.346;2022-11-20T15:00:57;11.10;99.90
25410;DHT22;13339;50.840;4.346;2022-11-20T15:03:30;11.10;99.90
25410;DHT22;13339;50.840;4.346;2022-11-20T15:05:55;11.20;99.90
25410;DHT22;13339;50.840;4.346;2022-11-20T15:08:21;11.40;99.90
25410;DHT22;13339;50.840;4.346;2022-11-20T15:10:48;11.40;99.90
25410;DHT22;13339;50.840;4.346;2022-11-20T15:15:47;11.60;99.90
25410;DHT22;13339;50.840;4.346;2022-11-20T15:18:15;11.40;99.90
25410;DHT22;13339;50.840;4.346;2022-11-20T15:20:42;11.60;99.90
25410;DHT22;13339;50.840;4.346;2022-11-20T15:23:13;11.70;99.90
25410;DHT22;13339;50.840;4.346;2022-11-20T15:25:40;11.80;99.90
25410;DHT22;13339;50.840;4.346;2022-11-20T15:28:18;11.90;99.90
25410;DHT22;13339;50.840;4.346;2022-11-20T15:30:46;11.90;99.90
25410;DHT22;13339;50.840;4.346;2022-11-20T15:33:12;11.50;99.90
25410;DHT22;13339;50.840;4.346;2022-11-20T15:35:38;11.70;99.90
25410;DHT22;13339;50.840;4.346;2022-11-20T15:38:03;11.70;99.90
25410;DHT22;13339;50.840;4.346;2022-11-20T15:40:29;11.70;99.90
25410;DHT22;13339;50.840;4.346;2022-11-20T15:42:54;11.70;99.90
25410;DHT22;13339;50.840;4.346;2022-11-20T15:45:41;11.90;99.90
25410;DHT22;13339;50.840;4.346;2022-11-20T15:48:13;11.90;99.90
25410;DHT22;13339;50.840;4.346;2022-11-20T15:53:17;11.90;99.90
25410;DHT22;13339;50.840;4.346;2022-11-20T15:55:43;11.80;99.90
25410;DHT22;13339;50.840;4.346;2022-11-20T15:58:09;11.90;99.90
25410;DHT22;13339;50.840;4.346;2022-11-20T16:00:34;12.00;99.90
25410;DHT22;13339;50.840;4.346;2022-11-20T16:03:00;11.90;99.90
25410;DHT22;13339;50.840;4.346;2022-11-20T16:05:29;11.90;99.90
25410;DHT22;13339;50.840;4.346;2022-11-20T16:07:55;11.90;99.90
25410;DHT22;13339;50.840;4.346;2022-11-20T16:10:21;11.90;99.90
25410;DHT22;13339;50.840;4.346;2022-11-20T16:12:46;11.80;99.90
25410;DHT22;13339;50.840;4.346;2022-11-20T16:15:31;11.90;99.90
25410;DHT22;13339;50.840;4.346;2022-11-20T16:18:14;11.90;99.90
25410;DHT22;13339;50.840;4.346;2022-11-20T16:20:40;11.80;99.90
25410;DHT22;13339;50.840;4.346;2022-11-20T16:23:06;11.90;99.90
25410;DHT22;13339;50.840;4.346;2022-11-20T16:25:32;11.90;99.90
25410;DHT22;13339;50.840;4.346;2022-11-20T16:27:58;11.90;99.90
25410;DHT22;13339;50.840;4.346;2022-11-20T16:30:23;11.90;99.90
25410;DHT22;13339;50.840;4.346;2022-11-20T16:32:49;11.90;99.90
25410;DHT22;13339;50.840;4.346;2022-11-20T16:35:15;11.90;99.90
25410;DHT22;13339;50.840;4.346;2022-11-20T16:37:40;11.90;99.90
25410;DHT22;13339;50.840;4.346;2022-11-20T16:40:07;11.80;99.90
25410;DHT22;13339;50.840;4.346;2022-11-20T16:42:34;11.80;99.90
25410;DHT22;13339;50.840;4.346;2022-11-20T16:45:00;11.80;99.90
25410;DHT22;13339;50.840;4.346;2022-11-20T16:47:25;11.90;99.90
25410;DHT22;13339;50.840;4.346;2022-11-20T16:49:51;11.90;99.90
25410;DHT22;13339;50.840;4.346;2022-11-20T16:52:16;11.90;99.90
25410;DHT22;13339;50.840;4.346;2022-11-20T16:54:42;11.90;99.90
25410;DHT22;13339;50.840;4.346;2022-11-20T16:57:08;11.80;99.90
25410;DHT22;13339;50.840;4.346;2022-11-20T16:59:33;11.80;99.90
25410;DHT22;13339;50.840;4.346;2022-11-20T17:01:59;11.80;99.90
25410;DHT22;13339;50.840;4.346;2022-11-20T17:04:24;11.90;99.90
25410;DHT22;13339;50.840;4.346;2022-11-20T17:06:50;11.90;99.90
25410;DHT22;13339;50.840;4.346;2022-11-20T17:09:15;12.00;99.90
25410;DHT22;13339;50.840;4.346;2022-11-20T17:11:41;12.00;99.90
25410;DHT22;13339;50.840;4.346;2022-11-20T17:14:07;12.00;99.90
25410;DHT22;13339;50.840;4.346;2022-11-20T17:16:34;12.10;99.90
25410;DHT22;13339;50.840;4.346;2022-11-20T17:19:00;12.20;99.90
25410;DHT22;13339;50.840;4.346;2022-11-20T17:21:26;12.20;99.90